Time;durP1;ratioP1;P1;durP2;ratioP2;P2;SDS_P1;SDS_P2;PMS_P1;PMS_P2;Temp;Humidity;BMP_temperature;BMP_pressure;BME280_temperature;BME280_humidity;BME280_pressure;Samples;Min_cycle;Max_cycle;Signal;HPM_P1;HPM_P2
2024/02/12 00:02:24;;;;;;;29.13;16.93;;;8.90;99.90;;;;;;5014069;28;20195;-84
2024/02/12 00:05:12;;;;;;;29.53;17.03;;;9.00;99.90;;;;;;5011625;28;20194;-85
2024/02/12 00:08:04;;;;;;;27.33;16.63;;;9.00;99.90;;;;;;4997524;28;20762;-85
2024/02/12 00:10:54;;;;;;;29.70;16.60;;;9.00;99.90;;;;;;4998803;28;20267;-85
2024/02/12 00:13:41;;;;;;;27.87;16.10;;;9.00;99.90;;;;;;4998222;28;20624;-85
2024/02/12 00:16:29;;;;;;;26.93;16.10;;;9.00;99.90;;;;;;4998667;28;20563;-85
2024/02/12 00:19:17;;;;;;;29.23;16.27;;;9.00;99.90;;;;;;5011610;28;20580;-85
2024/02/12 00:22:05;;;;;;;26.60;16.37;;;9.00;99.90;;;;;;5012083;28;20200;-85
2024/02/12 00:24:52;;;;;;;29.60;16.60;;;9.00;99.90;;;;;;4998565;28;20191;-85
2024/02/12 00:27:40;;;;;;;26.63;15.77;;;9.00;99.90;;;;;;5012421;28;20305;-86
2024/02/12 00:30:32;;;;;;;27.73;16.37;;;9.00;99.90;;;;;;4998485;28;20199;-86
2024/02/12 00:33:20;;;;;;;27.30;16.63;;;8.90;99.90;;;;;;4996651;28;20274;-85
2024/02/12 00:36:09;;;;;;;27.53;16.67;;;9.00;99.90;;;;;;5012276;28;20194;-85
2024/02/12 00:38:57;;;;;;;24.87;16.37;;;9.00;99.90;;;;;;4997167;28;20218;-86
2024/02/12 00:41:52;;;;;;;26.73;16.27;;;9.00;99.90;;;;;;4997173;28;20369;-85
2024/02/12 00:44:40;;;;;;;27.23;16.53;;;9.00;99.90;;;;;;4998201;28;20199;-85
2024/02/12 00:47:28;;;;;;;26.00;15.40;;;9.00;99.90;;;;;;4997748;28;20593;-85
2024/02/12 00:50:17;;;;;;;27.83;15.30;;;9.00;99.90;;;;;;5003704;28;20670;-84
2024/02/12 00:53:05;;;;;;;28.10;15.93;;;8.90;99.90;;;;;;5014268;28;20196;-84
2024/02/12 00:55:55;;;;;;;26.80;16.20;;;8.90;99.90;;;;;;4997622;28;20208;-84
2024/02/12 00:58:45;;;;;;;26.20;16.07;;;8.90;99.90;;;;;;4997743;28;20260;-84
2024/02/12 01:01:34;;;;;;;28.20;16.50;;;9.00;99.90;;;;;;5013021;28;20253;-85
2024/02/12 01:04:22;;;;;;;28.13;16.80;;;8.90;99.90;;;;;;4996943;28;20573;-84
2024/02/12 01:07:10;;;;;;;28.97;16.60;;;8.90;99.90;;;;;;4997456;28;20589;-84
2024/02/12 01:09:57;;;;;;;25.90;15.63;;;8.90;99.90;;;;;;4996724;28;20207;-85
2024/02/12 01:12:45;;;;;;;27.43;15.23;;;8.90;99.90;;;;;;5012664;28;20226;-84
2024/02/12 01:15:33;;;;;;;24.37;15.90;;;8.90;99.90;;;;;;5011360;28;20289;-85
2024/02/12 01:18:20;;;;;;;27.77;15.70;;;8.90;99.90;;;;;;4996417;28;20202;-84
2024/02/12 01:21:08;;;;;;;24.00;14.87;;;9.00;99.90;;;;;;5015854;28;20200;-84
2024/02/12 01:23:56;;;;;;;24.77;14.83;;;9.00;99.90;;;;;;5015034;28;20285;-84
2024/02/12 01:26:44;;;;;;;23.67;14.80;;;9.00;99.90;;;;;;5016974;28;20211;-84
2024/02/12 01:29:31;;;;;;;24.23;14.77;;;9.00;99.90;;;;;;5003667;28;20191;-82
2024/02/12 01:32:19;;;;;;;21.00;13.90;;;9.00;99.90;;;;;;5005467;28;20195;-83
2024/02/12 01:35:13;;;;;;;22.50;15.03;;;9.00;99.90;;;;;;5007357;28;20195;-83
2024/02/12 01:38:05;;;;;;;25.20;15.27;;;9.00;99.90;;;;;;5006195;28;20198;-85
2024/02/12 01:40:53;;;;;;;26.17;15.00;;;9.00;99.90;;;;;;5005508;28;20194;-84
2024/02/12 01:43:42;;;;;;;25.17;15.80;;;9.10;99.90;;;;;;5003194;28;20541;-84
2024/02/12 01:46:30;;;;;;;23.60;14.90;;;9.00;99.90;;;;;;5006139;28;20284;-83
2024/02/12 01:49:19;;;;;;;26.53;14.53;;;9.00;99.90;;;;;;5001427;28;20307;-84
2024/02/12 01:52:10;;;;;;;24.80;15.17;;;9.00;99.90;;;;;;5014863;28;20213;-85
2024/02/12 01:55:02;;;;;;;24.80;14.50;;;9.00;99.90;;;;;;5016143;28;20612;-84
2024/02/12 01:57:51;;;;;;;24.20;14.43;;;9.00;99.90;;;;;;5000296;28;20219;-84
2024/02/12 02:00:42;;;;;;;22.43;14.73;;;9.00;99.90;;;;;;5014641;28;20229;-84
2024/02/12 02:03:30;;;;;;;28.20;14.73;;;9.00;99.90;;;;;;5001331;28;20227;-85
2024/02/12 02:06:18;;;;;;;26.80;15.80;;;9.00;99.90;;;;;;5000584;28;20290;-85
2024/02/12 02:09:07;;;;;;;26.27;15.13;;;9.00;99.90;;;;;;5000627;28;20273;-84
2024/02/12 02:11:55;;;;;;;24.70;15.13;;;9.00;99.90;;;;;;4999798;28;20301;-84
2024/02/12 02:14:44;;;;;;;28.73;15.97;;;8.90;99.90;;;;;;5000512;28;20201;-84
2024/02/12 02:17:33;;;;;;;26.97;15.60;;;9.00;99.90;;;;;;5000477;28;20335;-84
2024/02/12 02:20:26;;;;;;;22.93;14.70;;;9.00;99.90;;;;;;5015389;28;20224;-84
2024/02/12 02:23:14;;;;;;;24.43;14.93;;;9.00;99.90;;;;;;5000352;28;20361;-85
2024/02/12 02:26:02;;;;;;;26.53;15.47;;;9.00;99.90;;;;;;5015183;28;20675;-84
2024/02/12 02:28:49;;;;;;;26.00;16.00;;;9.10;99.90;;;;;;4999679;28;20204;-84
2024/02/12 02:31:38;;;;;;;25.13;15.53;;;9.00;99.90;;;;;;5014589;28;20696;-85
2024/02/12 02:34:25;;;;;;;25.13;15.63;;;9.00;99.90;;;;;;5000820;28;20191;-84
2024/02/12 02:37:13;;;;;;;25.80;14.87;;;9.00;99.90;;;;;;5015645;28;20711;-84
2024/02/12 02:40:03;;;;;;;26.43;16.07;;;9.00;99.90;;;;;;4999904;28;20580;-84
2024/02/12 02:42:52;;;;;;;26.27;15.10;;;9.00;99.90;;;;;;4999793;28;20698;-85
2024/02/12 02:45:40;;;;;;;26.63;15.50;;;9.00;99.90;;;;;;4999369;28;20666;-85
2024/02/12 02:48:28;;;;;;;25.97;15.33;;;9.00;99.90;;;;;;5000349;28;20566;-85
2024/02/12 02:51:30;;;;;;;25.47;14.77;;;9.10;99.90;;;;;;5000864;28;20289;-84
2024/02/12 02:54:17;;;;;;;24.30;15.47;;;9.10;99.90;;;;;;5000599;28;20196;-84
2024/02/12 02:57:07;;;;;;;23.50;15.03;;;9.00;99.90;;;;;;5014024;28;20270;-84
2024/02/12 02:59:55;;;;;;;26.17;15.47;;;9.10;99.90;;;;;;4999518;28;20822;-84
2024/02/12 03:02:42;;;;;;;24.87;15.93;;;9.10;99.90;;;;;;4999998;28;20201;-84
2024/02/12 03:05:30;;;;;;;24.97;16.03;;;9.00;99.90;;;;;;4998816;28;20203;-84
2024/02/12 03:08:17;;;;;;;25.67;15.73;;;9.10;99.90;;;;;;5000515;28;20206;-84
2024/02/12 03:11:05;;;;;;;24.00;15.47;;;9.10;99.90;;;;;;4999408;28;20206;-85
2024/02/12 03:13:55;;;;;;;24.00;15.00;;;9.00;99.90;;;;;;5014646;28;20283;-85
2024/02/12 03:16:44;;;;;;;27.93;17.10;;;9.10;99.90;;;;;;5013102;28;20206;-85
2024/02/12 03:19:32;;;;;;;25.47;16.37;;;9.10;99.90;;;;;;4998667;28;20574;-85
2024/02/12 03:22:19;;;;;;;27.90;16.37;;;9.00;99.90;;;;;;4999787;28;20690;-84
2024/02/12 03:25:11;;;;;;;30.10;16.30;;;8.90;99.90;;;;;;5012873;28;20222;-85
2024/02/12 03:27:59;;;;;;;28.17;16.83;;;9.00;99.90;;;;;;4998934;28;20321;-85
2024/02/12 03:30:46;;;;;;;28.93;17.10;;;8.90;99.90;;;;;;4999936;28;20204;-84
2024/02/12 03:33:36;;;;;;;30.10;17.57;;;8.90;99.90;;;;;;5013273;28;20202;-85
2024/02/12 03:36:23;;;;;;;29.20;17.27;;;9.00;99.90;;;;;;5013380;28;20208;-85
2024/02/12 03:39:11;;;;;;;31.03;18.67;;;9.00;99.90;;;;;;4999280;28;20219;-85
2024/02/12 03:41:58;;;;;;;26.90;17.23;;;9.00;99.90;;;;;;4997780;28;20227;-84
2024/02/12 03:44:46;;;;;;;30.27;18.53;;;8.90;99.90;;;;;;4999305;28;20207;-84
2024/02/12 03:47:40;;;;;;;31.30;18.37;;;8.90;99.90;;;;;;5012062;28;20192;-85
2024/02/12 03:59:52;;;;;;;34.03;18.30;;;9.00;99.90;;;;;;5012559;28;20824;-84
2024/02/12 04:02:40;;;;;;;29.10;17.93;;;9.00;99.90;;;;;;4998273;28;20556;-85
2024/02/12 04:05:28;;;;;;;29.93;17.90;;;9.00;99.90;;;;;;5011918;28;20207;-84
2024/02/12 04:08:16;;;;;;;30.40;17.80;;;9.00;99.90;;;;;;4998829;28;20199;-84
2024/02/12 04:11:05;;;;;;;29.23;18.37;;;8.90;99.90;;;;;;4998209;28;20196;-85
2024/02/12 04:13:54;;;;;;;29.33;18.20;;;9.00;99.90;;;;;;4998218;28;20777;-85
2024/02/12 04:16:51;;;;;;;31.63;18.20;;;9.00;99.90;;;;;;4997731;28;20285;-85
2024/02/12 04:19:39;;;;;;;30.00;17.97;;;8.90;99.90;;;;;;4998728;28;20217;-85
2024/02/12 04:22:26;;;;;;;28.17;18.23;;;8.90;99.90;;;;;;5012627;28;20673;-85
2024/02/12 04:25:19;;;;;;;34.90;20.43;;;8.90;99.90;;;;;;4998116;28;20278;-84
2024/02/12 04:28:09;;;;;;;33.47;19.00;;;8.90;99.90;;;;;;4998420;28;20210;-84
2024/02/12 04:30:57;;;;;;;30.93;18.77;;;8.90;99.90;;;;;;5011085;28;20741;-85
2024/02/12 04:33:46;;;;;;;31.73;19.67;;;8.90;99.90;;;;;;4996754;28;20640;-84
2024/02/12 04:36:44;;;;;;;32.53;19.67;;;8.90;99.90;;;;;;4998683;28;20286;-85
2024/02/12 04:39:33;;;;;;;33.33;18.90;;;8.90;99.90;;;;;;4998953;28;20224;-84
2024/02/12 04:42:21;;;;;;;31.37;18.87;;;8.90;99.90;;;;;;4998760;28;20703;-84
2024/02/12 04:45:10;;;;;;;32.33;18.27;;;8.90;99.90;;;;;;4998282;28;20200;-84
2024/02/12 04:47:58;;;;;;;28.90;16.90;;;8.80;99.90;;;;;;4998400;28;20349;-84
2024/02/12 04:50:47;;;;;;;27.87;17.20;;;8.90;99.90;;;;;;5012707;28;20188;-83
2024/02/12 04:53:38;;;;;;;29.67;17.67;;;8.90;99.90;;;;;;5011743;28;20190;-83
2024/02/12 04:56:27;;;;;;;30.33;17.67;;;8.90;99.90;;;;;;4997390;28;20190;-83
2024/02/12 04:59:21;;;;;;;30.93;17.77;;;8.90;99.90;;;;;;4997119;28;20307;-83
2024/02/12 05:02:09;;;;;;;28.47;17.60;;;9.00;99.90;;;;;;5011536;28;20213;-83
2024/02/12 05:04:57;;;;;;;27.77;16.13;;;9.00;99.90;;;;;;4997659;28;20188;-84
2024/02/12 05:07:45;;;;;;;24.83;15.80;;;8.90;99.90;;;;;;5011096;28;20274;-84
2024/02/12 05:10:32;;;;;;;22.67;15.13;;;8.90;99.90;;;;;;4997632;28;20247;-84
2024/02/12 05:13:21;;;;;;;28.13;15.87;;;8.90;99.90;;;;;;5011314;28;20225;-84
2024/02/12 05:16:08;;;;;;;27.00;15.40;;;8.90;99.90;;;;;;4997768;28;20282;-85
2024/02/12 05:25:08;;;;;;;26.53;14.43;;;8.90;99.90;;;;;;5013147;28;20231;-85
2024/02/12 05:27:57;;;;;;;20.63;13.50;;;8.90;99.90;;;;;;4997437;28;20230;-85
2024/02/12 05:30:45;;;;;;;19.93;13.80;;;8.80;99.90;;;;;;4997869;28;20195;-86
2024/02/12 05:33:33;;;;;;;20.97;12.77;;;8.80;99.90;;;;;;4998172;28;20221;-86
2024/02/12 05:36:21;;;;;;;20.20;12.00;;;8.80;99.90;;;;;;4997460;28;20258;-86
2024/02/12 05:39:09;;;;;;;17.80;11.50;;;8.90;99.90;;;;;;4997043;28;20198;-86
2024/02/12 05:41:57;;;;;;;19.17;12.20;;;8.80;99.90;;;;;;4997719;28;20207;-87
2024/02/12 05:44:45;;;;;;;16.47;11.07;;;8.80;99.90;;;;;;5012218;28;20194;-86
2024/02/12 05:47:32;;;;;;;17.87;11.37;;;8.80;99.90;;;;;;4997092;28;20274;-86
2024/02/12 05:50:20;;;;;;;17.40;11.53;;;8.80;99.90;;;;;;4996526;28;20195;-86
2024/02/12 05:53:10;;;;;;;17.93;10.23;;;8.70;99.90;;;;;;5011232;28;20647;-85
2024/02/12 05:55:58;;;;;;;16.07;10.50;;;8.70;99.90;;;;;;5010501;28;20729;-85
2024/02/12 05:58:45;;;;;;;14.37;9.40;;;8.70;99.90;;;;;;5010391;28;20664;-85
2024/02/12 06:01:33;;;;;;;14.17;10.03;;;8.70;99.90;;;;;;4996801;28;20216;-84
2024/02/12 06:04:21;;;;;;;13.40;9.17;;;8.70;99.90;;;;;;4998034;28;20376;-86
2024/02/12 06:07:09;;;;;;;13.00;8.50;;;8.60;99.90;;;;;;5000994;28;20251;-86
2024/02/12 06:09:57;;;;;;;12.73;8.60;;;8.60;99.90;;;;;;5013930;28;20204;-85
2024/02/12 06:12:44;;;;;;;13.90;8.70;;;8.60;99.90;;;;;;5014493;28;20667;-86
2024/02/12 06:15:32;;;;;;;11.77;8.13;;;8.50;99.90;;;;;;5015424;28;20200;-86
2024/02/12 06:18:19;;;;;;;11.47;7.53;;;8.50;99.90;;;;;;5002113;28;21027;-86
2024/02/12 06:21:08;;;;;;;12.20;7.83;;;8.50;99.90;;;;;;5014316;28;20210;-85
2024/02/12 06:23:56;;;;;;;10.63;7.50;;;8.50;99.90;;;;;;5015523;28;20571;-85
2024/02/12 06:26:44;;;;;;;12.33;7.67;;;8.50;99.90;;;;;;5000875;28;20588;-87
2024/02/12 06:29:32;;;;;;;13.50;7.27;;;8.50;99.90;;;;;;5013734;28;20226;-87
2024/02/12 06:32:19;;;;;;;11.10;6.93;;;8.50;99.90;;;;;;5014055;28;20808;-84
2024/02/12 06:35:08;;;;;;;10.90;6.60;;;8.50;99.90;;;;;;5013567;28;20574;-86
2024/02/12 06:37:56;;;;;;;9.17;6.27;;;8.40;99.90;;;;;;5014067;28;20203;-84
2024/02/12 06:40:44;;;;;;;8.00;6.20;;;8.40;99.90;;;;;;4999492;28;20229;-85
2024/02/12 06:43:37;;;;;;;10.73;7.00;;;8.50;99.90;;;;;;5016597;28;20215;-92
2024/02/12 06:46:25;;;;;;;9.97;6.50;;;8.40;99.90;;;;;;5000452;28;20199;-85
2024/02/12 06:49:13;;;;;;;11.20;5.93;;;8.40;99.90;;;;;;5013803;28;20199;-85
2024/02/12 06:52:01;;;;;;;9.80;6.93;;;8.50;99.90;;;;;;5014262;28;20276;-85
2024/02/12 06:54:49;;;;;;;9.63;6.30;;;8.50;99.90;;;;;;5000259;28;20623;-84
2024/02/12 06:57:37;;;;;;;8.63;5.83;;;8.50;99.90;;;;;;4999748;28;20221;-85
2024/02/12 07:00:25;;;;;;;7.73;5.93;;;8.60;99.90;;;;;;5000408;28;20218;-85
2024/02/12 07:03:13;;;;;;;9.67;6.37;;;8.60;99.90;;;;;;5013692;28;20203;-85
2024/02/12 07:06:00;;;;;;;8.00;5.90;;;8.60;99.90;;;;;;5013861;28;20917;-84
2024/02/12 07:08:48;;;;;;;7.97;5.93;;;8.50;99.90;;;;;;5012648;28;20331;-84
2024/02/12 07:11:37;;;;;;;8.67;6.03;;;8.80;99.90;;;;;;5012685;28;20222;-85
2024/02/12 07:14:26;;;;;;;7.73;5.40;;;8.80;99.90;;;;;;5014260;28;20277;-85
2024/02/12 07:17:15;;;;;;;8.10;4.90;;;8.80;99.90;;;;;;4998731;28;20202;-85
2024/02/12 07:20:04;;;;;;;7.40;5.43;;;8.80;99.90;;;;;;5013119;28;20257;-86
2024/02/12 07:22:51;;;;;;;7.30;5.10;;;8.80;99.90;;;;;;4999127;28;20203;-86
2024/02/12 07:25:39;;;;;;;7.13;5.20;;;8.80;99.90;;;;;;4998350;28;20224;-85
2024/02/12 07:28:27;;;;;;;8.00;5.20;;;8.80;99.90;;;;;;5014232;28;20362;-86
2024/02/12 07:31:14;;;;;;;9.83;5.40;;;8.80;99.90;;;;;;4998473;28;20211;-86
2024/02/12 07:34:03;;;;;;;7.10;5.00;;;8.80;99.90;;;;;;5014041;28;20198;-85
2024/02/12 07:36:51;;;;;;;7.97;5.40;;;8.80;99.90;;;;;;5012879;28;20200;-85
2024/02/12 07:39:40;;;;;;;6.30;4.87;;;8.80;99.90;;;;;;4999476;28;20194;-87
2024/02/12 07:42:28;;;;;;;7.00;5.10;;;8.80;99.90;;;;;;5013942;28;20587;-86
2024/02/12 07:45:17;;;;;;;7.40;5.03;;;8.90;99.90;;;;;;5014095;28;20301;-87
2024/02/12 07:48:05;;;;;;;8.07;4.70;;;8.90;99.90;;;;;;4999360;28;20203;-87
2024/02/12 07:50:54;;;;;;;7.83;4.93;;;8.90;99.90;;;;;;5013212;28;20200;-86
2024/02/12 07:53:44;;;;;;;7.43;5.27;;;8.90;99.90;;;;;;4996789;28;20210;-87
2024/02/12 07:56:31;;;;;;;6.30;4.87;;;8.90;99.90;;;;;;4999822;28;20217;-87
2024/02/12 07:59:20;;;;;;;9.00;5.43;;;8.90;99.90;;;;;;4998323;28;20283;-87
2024/02/12 08:02:07;;;;;;;6.80;5.20;;;8.80;99.90;;;;;;5012771;28;20227;-86
2024/02/12 08:04:55;;;;;;;7.80;5.43;;;8.90;99.90;;;;;;4998398;28;20214;-87
2024/02/12 08:07:50;;;;;;;7.47;5.47;;;8.80;99.90;;;;;;5011257;28;20222;-86
2024/02/12 08:10:49;;;;;;;7.10;5.07;;;8.90;99.90;;;;;;4999263;28;20610;-86
2024/02/12 08:13:37;;;;;;;7.20;5.70;;;8.90;99.90;;;;;;5012891;28;20204;-87
2024/02/12 08:16:26;;;;;;;8.33;6.10;;;8.80;99.90;;;;;;5011961;28;20238;-87
2024/02/12 08:19:18;;;;;;;7.67;5.40;;;8.80;99.90;;;;;;5012697;28;20207;-86
2024/02/12 08:22:06;;;;;;;8.43;5.60;;;8.80;99.90;;;;;;5012487;28;20241;-86
2024/02/12 08:24:54;;;;;;;8.87;5.57;;;8.80;99.90;;;;;;5012033;28;20207;-86
2024/02/12 08:27:42;;;;;;;7.63;5.10;;;8.90;99.90;;;;;;5011234;28;20230;-86
2024/02/12 08:30:30;;;;;;;6.40;4.57;;;8.80;99.90;;;;;;5011760;28;20723;-86
2024/02/12 08:33:17;;;;;;;6.47;4.53;;;8.90;99.90;;;;;;5011810;28;20210;-86
2024/02/12 08:36:05;;;;;;;6.13;4.70;;;8.90;99.90;;;;;;5012978;28;20308;-86
2024/02/12 08:38:53;;;;;;;6.13;4.67;;;8.90;99.90;;;;;;4998492;28;20207;-86
2024/02/12 08:41:41;;;;;;;5.90;4.50;;;8.90;99.90;;;;;;5013557;28;20318;-86
2024/02/12 08:44:31;;;;;;;6.10;4.53;;;8.90;99.90;;;;;;5000987;28;20193;-86
2024/02/12 08:47:20;;;;;;;7.63;4.53;;;9.00;99.90;;;;;;5012680;28;20191;-85
2024/02/12 08:50:10;;;;;;;7.13;4.60;;;8.90;99.90;;;;;;5013539;28;20858;-86
2024/02/12 08:52:59;;;;;;;6.00;4.63;;;8.80;99.90;;;;;;4998366;28;20207;-86
2024/02/12 08:55:46;;;;;;;7.33;4.60;;;8.90;99.90;;;;;;5011539;28;20214;-87
2024/02/12 08:58:35;;;;;;;5.37;4.17;;;8.80;99.90;;;;;;5012543;28;20203;-86
2024/02/12 09:01:23;;;;;;;6.03;4.50;;;8.80;99.90;;;;;;4997948;28;20273;-86
2024/02/12 09:04:10;;;;;;;7.30;4.77;;;8.80;99.90;;;;;;4997327;28;20218;-86
2024/02/12 09:06:58;;;;;;;7.40;4.20;;;8.80;99.90;;;;;;4991771;28;20239;-86
2024/02/12 09:09:49;;;;;;;6.67;4.60;;;8.80;99.90;;;;;;4992356;28;20683;-87
2024/02/12 09:12:38;;;;;;;6.53;4.17;;;8.80;99.90;;;;;;5004947;28;20222;-86
2024/02/12 09:15:39;;;;;;;6.53;4.50;;;8.80;99.90;;;;;;4992274;28;20192;-86
2024/02/12 09:18:27;;;;;;;7.17;4.40;;;8.80;99.90;;;;;;4993389;28;20206;-87
2024/02/12 09:21:15;;;;;;;5.77;4.30;;;8.70;99.90;;;;;;5005300;28;20690;-87
2024/02/12 09:24:03;;;;;;;5.90;4.53;;;8.70;99.90;;;;;;4993345;28;20206;-86
2024/02/12 09:26:51;;;;;;;8.23;4.80;;;8.70;99.90;;;;;;4992318;28;20280;-86
2024/02/12 09:29:38;;;;;;;7.43;4.60;;;8.80;99.90;;;;;;4991272;28;20197;-86
2024/02/12 09:32:27;;;;;;;6.17;4.40;;;8.70;99.90;;;;;;4992801;28;20200;-86
2024/02/12 09:35:16;;;;;;;6.77;4.43;;;8.60;99.90;;;;;;4991307;28;20204;-85
2024/02/12 09:38:08;;;;;;;7.30;4.53;;;8.70;99.90;;;;;;4991044;28;20283;-85
2024/02/12 09:40:57;;;;;;;5.67;4.43;;;8.70;99.90;;;;;;4993152;28;20707;-86
2024/02/12 09:43:46;;;;;;;7.10;4.80;;;8.70;99.90;;;;;;4995741;28;20203;-86
2024/02/12 09:46:37;;;;;;;6.73;4.60;;;8.70;99.90;;;;;;5008394;28;20564;-85
2024/02/12 09:49:38;;;;;;;5.80;4.50;;;8.70;99.90;;;;;;4997696;28;20211;-93
2024/02/12 09:52:29;;;;;;;6.63;4.60;;;8.70;99.90;;;;;;5001529;28;20561;-87
2024/02/12 09:55:20;;;;;;;6.80;5.00;;;8.80;99.90;;;;;;4995582;28;20246;-91
2024/02/12 09:58:10;;;;;;;6.27;4.53;;;8.80;99.90;;;;;;5007480;28;20620;-89
2024/02/12 10:00:58;;;;;;;6.77;4.60;;;8.80;99.90;;;;;;4994140;28;20302;-88
2024/02/12 10:03:46;;;;;;;6.93;4.40;;;8.80;99.90;;;;;;4995195;28;20650;-86
2024/02/12 10:06:35;;;;;;;7.53;4.30;;;8.90;99.90;;;;;;5001664;28;20233;-89
2024/02/12 10:09:24;;;;;;;7.97;4.67;;;8.90;99.90;;;;;;5014455;28;20198;-87
2024/02/12 10:12:13;;;;;;;5.50;4.37;;;8.90;99.90;;;;;;4994372;28;20222;-86
2024/02/12 10:15:01;;;;;;;6.90;5.00;;;8.80;99.90;;;;;;5012937;28;20195;-86
2024/02/12 10:17:49;;;;;;;7.77;5.03;;;8.90;99.90;;;;;;5001168;28;20207;-88
2024/02/12 10:20:39;;;;;;;7.00;5.00;;;9.00;99.90;;;;;;4998829;28;20214;-87
2024/02/12 10:23:27;;;;;;;7.47;4.60;;;8.90;99.90;;;;;;5001673;28;20202;-86
2024/02/12 10:26:24;;;;;;;5.97;4.80;;;9.00;99.90;;;;;;5001655;28;20206;-87
2024/02/12 10:29:13;;;;;;;6.97;4.60;;;9.00;99.90;;;;;;5022079;28;20199;-88
2024/02/12 10:32:02;;;;;;;6.07;4.80;;;9.00;99.90;;;;;;5000355;28;20203;-87
2024/02/12 10:34:52;;;;;;;7.50;5.20;;;8.90;99.90;;;;;;5000757;28;20254;-88
2024/02/12 10:37:40;;;;;;;5.33;4.17;;;9.00;99.90;;;;;;5003590;28;20191;-88
2024/02/12 10:40:32;;;;;;;6.77;4.70;;;8.80;99.90;;;;;;5004247;28;20228;-88
2024/02/12 10:43:24;;;;;;;7.50;4.70;;;8.90;99.90;;;;;;5004313;28;20226;-88
2024/02/12 10:46:12;;;;;;;7.50;4.77;;;8.90;99.90;;;;;;5001926;28;20602;-89
2024/02/12 10:49:01;;;;;;;6.27;5.07;;;8.90;99.90;;;;;;5016315;28;20219;-88
2024/02/12 10:51:55;;;;;;;5.90;4.80;;;8.90;99.90;;;;;;5016005;28;20602;-88
2024/02/12 10:54:44;;;;;;;8.87;5.33;;;9.00;99.90;;;;;;5001215;28;20194;-87
2024/02/12 10:57:33;;;;;;;15.50;5.80;;;9.00;99.90;;;;;;4999835;28;20219;-89
2024/02/12 11:00:23;;;;;;;8.00;4.93;;;9.10;99.90;;;;;;5013273;28;20684;-88
2024/02/12 11:03:14;;;;;;;5.97;4.83;;;9.10;99.90;;;;;;5000541;28;20195;-90
2024/02/12 11:06:08;;;;;;;5.87;5.00;;;9.10;99.90;;;;;;4999831;28;20258;-88
2024/02/12 11:08:56;;;;;;;6.97;5.20;;;9.10;99.90;;;;;;5000662;28;20200;-88
2024/02/12 11:11:46;;;;;;;7.83;5.17;;;9.10;99.90;;;;;;5016814;28;20234;-90
2024/02/12 11:14:34;;;;;;;6.77;5.00;;;9.10;99.90;;;;;;5019178;28;20746;-89
2024/02/12 11:17:23;;;;;;;6.23;5.17;;;9.00;99.90;;;;;;4999447;28;20203;-88
2024/02/12 11:20:23;;;;;;;7.20;4.83;;;9.10;99.90;;;;;;5015031;28;20203;-88
2024/02/12 11:23:20;;;;;;;6.93;4.77;;;9.00;99.90;;;;;;5000547;28;20195;-89
2024/02/12 11:26:10;;;;;;;7.67;5.20;;;9.00;99.90;;;;;;5000432;28;20229;-89
2024/02/12 11:29:02;;;;;;;8.23;5.30;;;9.00;99.90;;;;;;5014173;28;20286;-89
2024/02/12 11:31:55;;;;;;;6.50;4.60;;;9.00;99.90;;;;;;5013268;28;20257;-88
2024/02/12 11:34:44;;;;;;;7.30;5.33;;;9.00;99.90;;;;;;4999350;28;20254;-89
2024/02/12 11:37:32;;;;;;;6.57;4.63;;;9.00;99.90;;;;;;4999529;28;20239;-89
2024/02/12 11:40:20;;;;;;;6.47;5.10;;;8.90;99.90;;;;;;5000047;28;20200;-90
2024/02/12 11:43:10;;;;;;;7.90;4.60;;;8.90;99.90;;;;;;5012451;28;20478;-89
2024/02/12 11:46:01;;;;;;;6.30;4.97;;;8.90;99.90;;;;;;4998797;28;20286;-88
2024/02/12 11:48:49;;;;;;;9.27;5.50;;;9.00;99.90;;;;;;5012701;28;20207;-88
2024/02/12 11:51:39;;;;;;;6.23;4.73;;;8.90;99.90;;;;;;4998220;28;20206;-90
2024/02/12 11:54:27;;;;;;;7.90;5.17;;;8.90;99.90;;;;;;5001158;28;20202;-89
2024/02/12 11:57:18;;;;;;;8.27;5.47;;;9.20;99.90;;;;;;4999976;28;20543;-89
2024/02/12 12:00:16;;;;;;;6.63;5.27;;;8.90;99.90;;;;;;5015987;28;20204;-88
2024/02/12 12:03:07;;;;;;;7.77;5.30;;;8.90;99.90;;;;;;4999407;28;20235;-90
2024/02/12 12:05:55;;;;;;;7.20;4.90;;;8.90;99.90;;;;;;5014506;28;20283;-90
2024/02/12 12:08:46;;;;;;;11.03;5.57;;;8.90;99.90;;;;;;4999521;28;20206;-91
2024/02/12 12:11:35;;;;;;;8.87;4.73;;;8.90;99.90;;;;;;4999442;28;20227;-91
2024/02/12 12:14:24;;;;;;;7.03;5.30;;;9.00;99.90;;;;;;5013822;28;20199;-90
2024/02/12 12:17:15;;;;;;;6.87;5.40;;;9.00;99.90;;;;;;4998995;28;20712;-91
2024/02/12 12:20:20;;;;;;;8.00;5.37;;;9.10;99.90;;;;;;5011442;28;20205;-90
2024/02/12 12:23:13;;;;;;;6.80;5.07;;;9.20;99.90;;;;;;5000785;28;20687;-91
2024/02/12 12:26:04;;;;;;;7.00;4.87;;;9.20;99.90;;;;;;4999703;28;20192;-91
2024/02/12 12:28:53;;;;;;;5.87;4.70;;;9.30;99.90;;;;;;5014137;28;20200;-91
2024/02/12 12:31:41;;;;;;;7.63;4.53;;;9.00;99.90;;;;;;4998862;28;20252;-91
2024/02/12 12:34:30;;;;;;;6.67;4.93;;;9.10;99.90;;;;;;4998077;28;20299;-90
2024/02/12 12:37:18;;;;;;;6.63;4.80;;;9.20;99.90;;;;;;4999461;28;20203;-91
2024/02/12 12:40:19;;;;;;;8.87;4.70;;;9.30;99.90;;;;;;4998875;28;20206;-90
2024/02/12 12:43:08;;;;;;;8.63;4.90;;;9.40;99.90;;;;;;5012785;28;20234;-92
2024/02/12 12:46:01;;;;;;;7.57;4.73;;;9.60;99.90;;;;;;5020206;28;20207;-92
2024/02/12 12:48:49;;;;;;;7.27;4.67;;;9.70;99.90;;;;;;5001835;28;20219;-92
2024/02/12 12:51:38;;;;;;;7.13;4.80;;;9.70;99.90;;;;;;5003015;28;20325;-91
2024/02/12 12:54:27;;;;;;;6.47;4.33;;;9.70;99.90;;;;;;4998123;28;20644;-91
2024/02/12 12:57:16;;;;;;;9.57;4.70;;;9.60;99.90;;;;;;5000191;28;20212;-91
2024/02/12 13:00:08;;;;;;;6.67;4.37;;;9.40;99.90;;;;;;5000736;28;20552;-90
2024/02/12 13:02:56;;;;;;;5.80;4.10;;;9.50;99.90;;;;;;4999430;28;20219;-90
2024/02/12 13:05:44;;;;;;;7.97;4.70;;;9.30;99.90;;;;;;5012913;28;20661;-90
2024/02/12 13:08:34;;;;;;;6.13;4.73;;;9.40;99.90;;;;;;5013925;28;20697;-91
2024/02/12 13:11:22;;;;;;;9.30;5.17;;;9.30;99.90;;;;;;4997412;28;20195;-90
2024/02/12 13:14:12;;;;;;;8.17;5.10;;;9.20;99.90;;;;;;5018424;28;20202;-90
2024/02/12 13:17:00;;;;;;;7.67;5.27;;;9.20;99.90;;;;;;5006739;28;20257;-91
2024/02/12 13:19:48;;;;;;;7.57;5.03;;;9.00;99.90;;;;;;5006605;28;20722;-91
2024/02/12 13:22:49;;;;;;;7.93;5.00;;;9.20;99.90;;;;;;5020989;28;20226;-91
2024/02/12 13:25:38;;;;;;;6.93;4.70;;;9.20;99.90;;;;;;5003995;28;20341;-89
2024/02/12 13:28:28;;;;;;;7.10;5.00;;;9.20;99.90;;;;;;5004016;28;20221;-90
2024/02/12 13:31:16;;;;;;;7.67;5.10;;;9.10;99.90;;;;;;5005200;28;20257;-92
2024/02/12 13:34:09;;;;;;;6.93;5.00;;;9.00;99.90;;;;;;5018686;28;20227;-91
2024/02/12 13:36:57;;;;;;;9.83;5.57;;;9.00;99.90;;;;;;5003440;28;20764;-90
2024/02/12 13:39:48;;;;;;;9.50;5.50;;;9.00;99.90;;;;;;5019335;28;20193;-91
2024/02/12 13:42:36;;;;;;;7.97;5.87;;;9.10;99.90;;;;;;5005685;28;20252;-91
2024/02/12 13:45:26;;;;;;;8.23;5.43;;;9.10;99.90;;;;;;5019245;28;20285;-91
2024/02/12 13:48:15;;;;;;;8.47;5.13;;;9.10;99.90;;;;;;5004331;28;20685;-91
2024/02/12 13:51:05;;;;;;;9.83;5.43;;;9.10;99.90;;;;;;5018591;28;20189;-90
2024/02/12 13:53:53;;;;;;;8.90;5.33;;;9.20;99.90;;;;;;5004226;28;20203;-91
2024/02/12 13:56:41;;;;;;;7.37;5.40;;;9.20;99.90;;;;;;5004097;28;20738;-91
2024/02/12 13:59:30;;;;;;;8.30;5.27;;;9.20;99.90;;;;;;5018695;28;20359;-91
2024/02/12 14:02:17;;;;;;;7.10;5.40;;;9.20;99.90;;;;;;5022502;28;20680;-91
2024/02/12 14:05:08;;;;;;;8.87;5.50;;;9.20;99.90;;;;;;5006361;28;20195;-91
2024/02/12 14:07:56;;;;;;;8.80;5.00;;;9.20;99.90;;;;;;5003325;28;20235;-91
2024/02/12 14:10:45;;;;;;;7.20;5.27;;;9.10;99.90;;;;;;5019134;28;20293;-92
2024/02/12 14:13:35;;;;;;;9.63;5.70;;;9.10;99.90;;;;;;5018948;28;20219;-92
2024/02/12 14:16:24;;;;;;;16.80;6.77;;;9.20;99.90;;;;;;5018665;28;20246;-91
2024/02/12 14:19:12;;;;;;;8.80;5.43;;;9.20;99.90;;;;;;5005165;28;20206;-91
2024/02/12 14:22:00;;;;;;;7.03;5.00;;;9.20;99.90;;;;;;5004824;28;20229;-92
2024/02/12 14:24:49;;;;;;;8.17;5.30;;;9.10;99.90;;;;;;5007587;28;20195;-90
2024/02/12 14:27:38;;;;;;;7.57;5.17;;;9.20;99.90;;;;;;5006460;28;20688;-92
2024/02/12 14:30:28;;;;;;;8.93;5.60;;;9.20;99.90;;;;;;5029489;28;20206;-90
2024/02/12 14:33:16;;;;;;;7.13;5.13;;;9.20;99.90;;;;;;5025963;28;20231;-91
2024/02/12 14:36:08;;;;;;;7.30;5.40;;;9.10;99.90;;;;;;5003726;28;20570;-92
2024/02/12 14:38:57;;;;;;;8.97;5.80;;;9.20;99.90;;;;;;5016959;28;20712;-91
2024/02/12 14:41:45;;;;;;;9.53;5.77;;;9.20;99.90;;;;;;5002822;28;20220;-91
2024/02/12 14:44:38;;;;;;;9.50;5.70;;;9.20;99.90;;;;;;5016887;28;20206;-90
2024/02/12 14:47:27;;;;;;;8.67;5.70;;;9.10;99.90;;;;;;5002280;28;20195;-91
2024/02/12 14:50:18;;;;;;;9.00;5.60;;;9.20;99.90;;;;;;5011011;28;20198;-92
2024/02/12 14:53:10;;;;;;;9.13;6.20;;;9.10;99.90;;;;;;4996027;28;20191;-92
2024/02/12 14:56:02;;;;;;;7.73;5.40;;;9.20;99.90;;;;;;4995722;28;20200;-90
2024/02/12 14:58:57;;;;;;;7.93;5.03;;;9.10;99.90;;;;;;5017423;28;20200;-90